sensor_id;sensor_type;location;lat;lon;timestamp;temperature;humidity
46319;DHT22;32042;50.916;2.926;2022-11-25T00:01:09;9.40;99.90
46319;DHT22;32042;50.916;2.926;2022-11-25T00:03:36;9.40;99.90
46319;DHT22;32042;50.916;2.926;2022-11-25T00:08:34;9.40;99.90
46319;DHT22;32042;50.916;2.926;2022-11-25T00:11:01;9.40;99.90
46319;DHT22;32042;50.916;2.926;2022-11-25T00:13:26;9.40;99.90
46319;DHT22;32042;50.916;2.926;2022-11-25T00:15:52;9.40;99.90
46319;DHT22;32042;50.916;2.926;2022-11-25T00:18:18;9.30;99.90
46319;DHT22;32042;50.916;2.926;2022-11-25T00:20:44;9.30;99.90
46319;DHT22;32042;50.916;2.926;2022-11-25T00:23:09;9.30;99.90
46319;DHT22;32042;50.916;2.926;2022-11-25T00:25:35;9.30;99.90
46319;DHT22;32042;50.916;2.926;2022-11-25T00:28:01;9.30;99.90
46319;DHT22;32042;50.916;2.926;2022-11-25T00:30:26;9.30;99.90
46319;DHT22;32042;50.916;2.926;2022-11-25T00:32:53;9.30;99.90
46319;DHT22;32042;50.916;2.926;2022-11-25T00:35:19;9.20;99.90
46319;DHT22;32042;50.916;2.926;2022-11-25T00:37:45;9.20;99.90
46319;DHT22;32042;50.916;2.926;2022-11-25T00:40:11;9.20;99.90
46319;DHT22;32042;50.916;2.926;2022-11-25T00:42:37;9.20;99.90
46319;DHT22;32042;50.916;2.926;2022-11-25T00:45:21;9.20;99.90
46319;DHT22;32042;50.916;2.926;2022-11-25T00:47:47;9.20;99.90
46319;DHT22;32042;50.916;2.926;2022-11-25T00:50:13;9.20;99.90
46319;DHT22;32042;50.916;2.926;2022-11-25T00:52:38;9.20;99.90
46319;DHT22;32042;50.916;2.926;2022-11-25T00:55:04;9.10;99.90
46319;DHT22;32042;50.916;2.926;2022-11-25T00:57:30;9.10;99.90
46319;DHT22;32042;50.916;2.926;2022-11-25T00:59:56;9.10;99.90
46319;DHT22;32042;50.916;2.926;2022-11-25T01:02:22;9.10;99.90
46319;DHT22;32042;50.916;2.926;2022-11-25T01:04:48;9.10;99.90
46319;DHT22;32042;50.916;2.926;2022-11-25T01:07:14;9.10;99.90
46319;DHT22;32042;50.916;2.926;2022-11-25T01:09:39;9.10;99.90
46319;DHT22;32042;50.916;2.926;2022-11-25T01:12:05;9.00;99.90
46319;DHT22;32042;50.916;2.926;2022-11-25T01:14:31;9.00;99.90
46319;DHT22;32042;50.916;2.926;2022-11-25T01:16:57;9.00;99.90
46319;DHT22;32042;50.916;2.926;2022-11-25T01:19:23;9.00;99.90
46319;DHT22;32042;50.916;2.926;2022-11-25T01:21:49;9.00;99.90
46319;DHT22;32042;50.916;2.926;2022-11-25T01:24:16;9.00;99.90
46319;DHT22;32042;50.916;2.926;2022-11-25T01:26:43;8.90;99.90
46319;DHT22;32042;50.916;2.926;2022-11-25T01:29:17;9.00;99.90
46319;DHT22;32042;50.916;2.926;2022-11-25T01:31:44;8.90;99.90
46319;DHT22;32042;50.916;2.926;2022-11-25T01:34:16;8.90;99.90
46319;DHT22;32042;50.916;2.926;2022-11-25T01:36:42;8.90;99.90
46319;DHT22;32042;50.916;2.926;2022-11-25T01:39:16;8.90;99.90
46319;DHT22;32042;50.916;2.926;2022-11-25T01:41:43;9.00;99.90
46319;DHT22;32042;50.916;2.926;2022-11-25T01:44:17;8.90;99.90
46319;DHT22;32042;50.916;2.926;2022-11-25T01:47:11;9.00;99.90
46319;DHT22;32042;50.916;2.926;2022-11-25T01:49:49;9.00;99.90
46319;DHT22;32042;50.916;2.926;2022-11-25T01:52:27;9.00;99.90
46319;DHT22;32042;50.916;2.926;2022-11-25T01:55:13;9.00;99.90
46319;DHT22;32042;50.916;2.926;2022-11-25T02:00:14;9.00;99.90
46319;DHT22;32042;50.916;2.926;2022-11-25T02:02:40;8.90;99.90
46319;DHT22;32042;50.916;2.926;2022-11-25T02:05:08;8.90;99.90
46319;DHT22;32042;50.916;2.926;2022-11-25T02:07:40;9.00;99.90
46319;DHT22;32042;50.916;2.926;2022-11-25T02:10:10;9.00;99.90
46319;DHT22;32042;50.916;2.926;2022-11-25T02:12:39;9.00;99.90
46319;DHT22;32042;50.916;2.926;2022-11-25T02:15:06;9.10;99.90
46319;DHT22;32042;50.916;2.926;2022-11-25T02:17:32;9.00;99.90
46319;DHT22;32042;50.916;2.926;2022-11-25T02:25:37;9.10;99.90
46319;DHT22;32042;50.916;2.926;2022-11-25T02:28:16;9.10;99.90
46319;DHT22;32042;50.916;2.926;2022-11-25T02:30:44;9.10;99.90
46319;DHT22;32042;50.916;2.926;2022-11-25T02:33:11;9.10;99.90
46319;DHT22;32042;50.916;2.926;2022-11-25T02:35:41;9.10;99.90
46319;DHT22;32042;50.916;2.926;2022-11-25T02:38:15;9.10;99.90
46319;DHT22;32042;50.916;2.926;2022-11-25T02:43:14;9.10;99.90
46319;DHT22;32042;50.916;2.926;2022-11-25T02:46:00;9.10;99.90
46319;DHT22;32042;50.916;2.926;2022-11-25T02:48:31;9.10;99.90
46319;DHT22;32042;50.916;2.926;2022-11-25T02:50:58;9.10;99.90
46319;DHT22;32042;50.916;2.926;2022-11-25T02:53:25;9.10;99.90
46319;DHT22;32042;50.916;2.926;2022-11-25T02:55:50;9.00;99.90
46319;DHT22;32042;50.916;2.926;2022-11-25T02:58:17;9.00;99.90
46319;DHT22;32042;50.916;2.926;2022-11-25T03:00:43;9.00;99.90
46319;DHT22;32042;50.916;2.926;2022-11-25T03:03:10;9.00;99.90
46319;DHT22;32042;50.916;2.926;2022-11-25T03:05:36;9.00;99.90
46319;DHT22;32042;50.916;2.926;2022-11-25T03:08:02;9.00;99.90
46319;DHT22;32042;50.916;2.926;2022-11-25T03:10:28;8.90;99.90
46319;DHT22;32042;50.916;2.926;2022-11-25T03:12:54;8.90;99.90
46319;DHT22;32042;50.916;2.926;2022-11-25T03:15:20;8.90;99.90
46319;DHT22;32042;50.916;2.926;2022-11-25T03:17:46;8.90;99.90
46319;DHT22;32042;50.916;2.926;2022-11-25T03:20:12;8.80;99.90
46319;DHT22;32042;50.916;2.926;2022-11-25T03:22:40;8.80;99.90
46319;DHT22;32042;50.916;2.926;2022-11-25T03:25:07;8.80;99.90
46319;DHT22;32042;50.916;2.926;2022-11-25T03:27:33;8.80;99.90
46319;DHT22;32042;50.916;2.926;2022-11-25T03:29:59;8.80;99.90
46319;DHT22;32042;50.916;2.926;2022-11-25T03:32:24;8.80;99.90
46319;DHT22;32042;50.916;2.926;2022-11-25T03:34:51;8.80;99.90
46319;DHT22;32042;50.916;2.926;2022-11-25T03:37:17;8.80;99.90
46319;DHT22;32042;50.916;2.926;2022-11-25T03:39:42;8.80;99.90
46319;DHT22;32042;50.916;2.926;2022-11-25T03:42:08;8.90;99.90
46319;DHT22;32042;50.916;2.926;2022-11-25T03:44:34;8.80;99.90
46319;DHT22;32042;50.916;2.926;2022-11-25T03:46:59;8.80;99.90
46319;DHT22;32042;50.916;2.926;2022-11-25T03:49:25;8.80;99.90
46319;DHT22;32042;50.916;2.926;2022-11-25T03:51:51;8.80;99.90
46319;DHT22;32042;50.916;2.926;2022-11-25T03:54:16;8.80;99.90
46319;DHT22;32042;50.916;2.926;2022-11-25T03:56:42;8.80;99.90
46319;DHT22;32042;50.916;2.926;2022-11-25T03:59:08;8.70;99.90
46319;DHT22;32042;50.916;2.926;2022-11-25T04:01:33;8.70;99.90
46319;DHT22;32042;50.916;2.926;2022-11-25T04:03:59;8.70;99.90
46319;DHT22;32042;50.916;2.926;2022-11-25T04:06:24;8.70;99.90
46319;DHT22;32042;50.916;2.926;2022-11-25T04:08:50;8.70;99.90
46319;DHT22;32042;50.916;2.926;2022-11-25T04:11:16;8.60;99.90
46319;DHT22;32042;50.916;2.926;2022-11-25T04:13:42;8.60;99.90
46319;DHT22;32042;50.916;2.926;2022-11-25T04:16:37;8.60;99.90
46319;DHT22;32042;50.916;2.926;2022-11-25T04:19:03;8.60;99.90
46319;DHT22;32042;50.916;2.926;2022-11-25T04:21:28;8.60;99.90
46319;DHT22;32042;50.916;2.926;2022-11-25T04:23:54;8.60;99.90
46319;DHT22;32042;50.916;2.926;2022-11-25T04:26:20;8.60;99.90
46319;DHT22;32042;50.916;2.926;2022-11-25T04:28:45;8.60;99.90
46319;DHT22;32042;50.916;2.926;2022-11-25T04:31:11;8.60;99.90
46319;DHT22;32042;50.916;2.926;2022-11-25T04:33:36;8.50;99.90
46319;DHT22;32042;50.916;2.926;2022-11-25T04:36:02;8.50;99.90
46319;DHT22;32042;50.916;2.926;2022-11-25T04:38:28;8.50;99.90
46319;DHT22;32042;50.916;2.926;2022-11-25T04:40:54;8.40;99.90
46319;DHT22;32042;50.916;2.926;2022-11-25T04:43:20;8.50;99.90
46319;DHT22;32042;50.916;2.926;2022-11-25T04:45:49;8.40;99.90
46319;DHT22;32042;50.916;2.926;2022-11-25T04:48:14;8.40;99.90
46319;DHT22;32042;50.916;2.926;2022-11-25T04:50:40;8.40;99.90
46319;DHT22;32042;50.916;2.926;2022-11-25T04:53:06;8.40;99.90
46319;DHT22;32042;50.916;2.926;2022-11-25T04:55:32;8.40;99.90
46319;DHT22;32042;50.916;2.926;2022-11-25T04:57:57;8.40;99.90
46319;DHT22;32042;50.916;2.926;2022-11-25T05:00:23;8.50;99.90
46319;DHT22;32042;50.916;2.926;2022-11-25T05:02:49;8.50;99.90
46319;DHT22;32042;50.916;2.926;2022-11-25T05:05:15;8.50;99.90
46319;DHT22;32042;50.916;2.926;2022-11-25T05:07:40;8.40;99.90
46319;DHT22;32042;50.916;2.926;2022-11-25T05:10:07;8.40;99.90
46319;DHT22;32042;50.916;2.926;2022-11-25T05:12:33;8.40;99.90
46319;DHT22;32042;50.916;2.926;2022-11-25T05:14:59;8.40;99.90
46319;DHT22;32042;50.916;2.926;2022-11-25T05:17:29;8.40;99.90
46319;DHT22;32042;50.916;2.926;2022-11-25T05:19:55;8.40;99.90
46319;DHT22;32042;50.916;2.926;2022-11-25T05:22:23;8.40;99.90
46319;DHT22;32042;50.916;2.926;2022-11-25T05:24:49;8.40;99.90
46319;DHT22;32042;50.916;2.926;2022-11-25T05:27:16;8.40;99.90
46319;DHT22;32042;50.916;2.926;2022-11-25T05:29:42;8.40;99.90
46319;DHT22;32042;50.916;2.926;2022-11-25T05:32:08;8.50;99.90
46319;DHT22;32042;50.916;2.926;2022-11-25T05:34:35;8.50;99.90
46319;DHT22;32042;50.916;2.926;2022-11-25T05:37:00;8.50;99.90
46319;DHT22;32042;50.916;2.926;2022-11-25T05:39:26;8.50;99.90
46319;DHT22;32042;50.916;2.926;2022-11-25T05:41:51;8.50;99.90
46319;DHT22;32042;50.916;2.926;2022-11-25T05:44:17;8.60;99.90
46319;DHT22;32042;50.916;2.926;2022-11-25T05:46:46;8.50;99.90
46319;DHT22;32042;50.916;2.926;2022-11-25T05:49:14;8.60;99.90
46319;DHT22;32042;50.916;2.926;2022-11-25T05:51:40;8.50;99.90
46319;DHT22;32042;50.916;2.926;2022-11-25T05:54:06;8.50;99.90
46319;DHT22;32042;50.916;2.926;2022-11-25T05:56:31;8.60;99.90
46319;DHT22;32042;50.916;2.926;2022-11-25T05:59:00;8.60;99.90
46319;DHT22;32042;50.916;2.926;2022-11-25T06:01:26;8.60;99.90
46319;DHT22;32042;50.916;2.926;2022-11-25T06:03:52;8.50;99.90
46319;DHT22;32042;50.916;2.926;2022-11-25T06:06:18;8.50;99.90
46319;DHT22;32042;50.916;2.926;2022-11-25T06:08:44;8.60;99.90
46319;DHT22;32042;50.916;2.926;2022-11-25T06:11:13;8.60;99.90
46319;DHT22;32042;50.916;2.926;2022-11-25T06:13:40;8.60;99.90
46319;DHT22;32042;50.916;2.926;2022-11-25T06:16:10;8.60;99.90
46319;DHT22;32042;50.916;2.926;2022-11-25T06:18:37;8.60;99.90
46319;DHT22;32042;50.916;2.926;2022-11-25T06:21:04;8.60;99.90
46319;DHT22;32042;50.916;2.926;2022-11-25T06:23:30;8.60;99.90
46319;DHT22;32042;50.916;2.926;2022-11-25T06:26:03;8.60;99.90
46319;DHT22;32042;50.916;2.926;2022-11-25T06:28:29;8.60;99.90
46319;DHT22;32042;50.916;2.926;2022-11-25T06:30:55;8.60;99.90
46319;DHT22;32042;50.916;2.926;2022-11-25T06:33:20;8.60;99.90
46319;DHT22;32042;50.916;2.926;2022-11-25T06:35:46;8.50;99.90
46319;DHT22;32042;50.916;2.926;2022-11-25T06:38:11;8.50;99.90
46319;DHT22;32042;50.916;2.926;2022-11-25T06:40:37;8.50;99.90
46319;DHT22;32042;50.916;2.926;2022-11-25T06:43:03;8.50;99.90
46319;DHT22;32042;50.916;2.926;2022-11-25T06:45:30;8.50;99.90
46319;DHT22;32042;50.916;2.926;2022-11-25T06:47:56;8.50;99.90
46319;DHT22;32042;50.916;2.926;2022-11-25T06:50:21;8.50;99.90
46319;DHT22;32042;50.916;2.926;2022-11-25T06:52:47;8.50;99.90
46319;DHT22;32042;50.916;2.926;2022-11-25T06:55:13;8.50;99.90
46319;DHT22;32042;50.916;2.926;2022-11-25T06:57:38;8.60;99.90
46319;DHT22;32042;50.916;2.926;2022-11-25T07:00:05;8.50;99.90
46319;DHT22;32042;50.916;2.926;2022-11-25T07:02:31;8.50;99.90
46319;DHT22;32042;50.916;2.926;2022-11-25T07:04:57;8.50;99.90
46319;DHT22;32042;50.916;2.926;2022-11-25T07:07:22;8.50;99.90
46319;DHT22;32042;50.916;2.926;2022-11-25T07:09:48;8.50;99.90
46319;DHT22;32042;50.916;2.926;2022-11-25T07:12:14;8.50;99.90
46319;DHT22;32042;50.916;2.926;2022-11-25T07:14:39;8.40;99.90
46319;DHT22;32042;50.916;2.926;2022-11-25T07:17:05;8.40;99.90
46319;DHT22;32042;50.916;2.926;2022-11-25T07:19:31;8.40;99.90
46319;DHT22;32042;50.916;2.926;2022-11-25T07:22:00;8.40;99.90
46319;DHT22;32042;50.916;2.926;2022-11-25T07:24:25;8.40;99.90
46319;DHT22;32042;50.916;2.926;2022-11-25T07:26:51;8.30;99.90
46319;DHT22;32042;50.916;2.926;2022-11-25T07:29:17;8.40;99.90
46319;DHT22;32042;50.916;2.926;2022-11-25T07:31:44;8.40;99.90
46319;DHT22;32042;50.916;2.926;2022-11-25T07:34:15;8.40;99.90
46319;DHT22;32042;50.916;2.926;2022-11-25T07:36:46;8.40;99.90
46319;DHT22;32042;50.916;2.926;2022-11-25T07:39:15;8.40;99.90
46319;DHT22;32042;50.916;2.926;2022-11-25T07:41:41;8.40;99.90
46319;DHT22;32042;50.916;2.926;2022-11-25T07:44:09;8.30;99.90
46319;DHT22;32042;50.916;2.926;2022-11-25T07:46:38;8.30;99.90
46319;DHT22;32042;50.916;2.926;2022-11-25T07:49:10;8.30;99.90
46319;DHT22;32042;50.916;2.926;2022-11-25T07:51:41;8.30;99.90
46319;DHT22;32042;50.916;2.926;2022-11-25T07:54:09;8.30;99.90
46319;DHT22;32042;50.916;2.926;2022-11-25T07:56:37;8.40;99.90
46319;DHT22;32042;50.916;2.926;2022-11-25T07:59:05;8.40;99.90
46319;DHT22;32042;50.916;2.926;2022-11-25T08:01:30;8.40;99.90
46319;DHT22;32042;50.916;2.926;2022-11-25T08:03:57;8.40;99.90
46319;DHT22;32042;50.916;2.926;2022-11-25T08:06:25;8.50;99.90
46319;DHT22;32042;50.916;2.926;2022-11-25T08:08:51;8.50;99.90
46319;DHT22;32042;50.916;2.926;2022-11-25T08:11:25;8.50;99.90
46319;DHT22;32042;50.916;2.926;2022-11-25T08:13:51;8.50;99.90
46319;DHT22;32042;50.916;2.926;2022-11-25T08:16:19;8.40;99.90
46319;DHT22;32042;50.916;2.926;2022-11-25T08:18:45;8.40;99.90
46319;DHT22;32042;50.916;2.926;2022-11-25T08:21:12;8.40;99.90
46319;DHT22;32042;50.916;2.926;2022-11-25T08:23:40;8.40;99.90
46319;DHT22;32042;50.916;2.926;2022-11-25T08:26:10;8.40;99.90
46319;DHT22;32042;50.916;2.926;2022-11-25T08:28:36;8.50;99.90
46319;DHT22;32042;50.916;2.926;2022-11-25T08:31:06;8.50;99.90
46319;DHT22;32042;50.916;2.926;2022-11-25T08:33:32;8.60;99.90
46319;DHT22;32042;50.916;2.926;2022-11-25T08:35:58;8.60;99.90
46319;DHT22;32042;50.916;2.926;2022-11-25T08:38:25;8.60;99.90
46319;DHT22;32042;50.916;2.926;2022-11-25T08:40:52;8.70;99.90
46319;DHT22;32042;50.916;2.926;2022-11-25T08:43:18;8.80;99.90
46319;DHT22;32042;50.916;2.926;2022-11-25T08:45:49;8.90;99.90
46319;DHT22;32042;50.916;2.926;2022-11-25T08:48:16;8.90;99.90
46319;DHT22;32042;50.916;2.926;2022-11-25T08:50:46;8.90;99.90
46319;DHT22;32042;50.916;2.926;2022-11-25T08:53:14;8.90;99.90
46319;DHT22;32042;50.916;2.926;2022-11-25T08:55:40;8.90;99.90
46319;DHT22;32042;50.916;2.926;2022-11-25T08:58:06;8.90;99.90
46319;DHT22;32042;50.916;2.926;2022-11-25T09:00:42;8.90;99.90
46319;DHT22;32042;50.916;2.926;2022-11-25T09:03:08;8.90;99.90
46319;DHT22;32042;50.916;2.926;2022-11-25T09:05:34;8.80;99.90
46319;DHT22;32042;50.916;2.926;2022-11-25T09:08:04;8.80;99.90
46319;DHT22;32042;50.916;2.926;2022-11-25T09:10:31;8.80;99.90
46319;DHT22;32042;50.916;2.926;2022-11-25T09:12:57;8.80;99.90
46319;DHT22;32042;50.916;2.926;2022-11-25T09:15:23;8.80;99.90
46319;DHT22;32042;50.916;2.926;2022-11-25T09:17:57;8.80;99.90
46319;DHT22;32042;50.916;2.926;2022-11-25T09:20:22;8.80;99.90
46319;DHT22;32042;50.916;2.926;2022-11-25T09:22:48;8.80;99.90
46319;DHT22;32042;50.916;2.926;2022-11-25T09:25:14;8.90;99.90
46319;DHT22;32042;50.916;2.926;2022-11-25T09:27:39;9.00;99.90
46319;DHT22;32042;50.916;2.926;2022-11-25T09:30:05;9.00;99.90
46319;DHT22;32042;50.916;2.926;2022-11-25T09:32:32;9.10;99.90
46319;DHT22;32042;50.916;2.926;2022-11-25T09:34:58;9.20;99.90
46319;DHT22;32042;50.916;2.926;2022-11-25T09:37:24;9.30;99.90
46319;DHT22;32042;50.916;2.926;2022-11-25T09:39:51;9.40;99.90
46319;DHT22;32042;50.916;2.926;2022-11-25T09:52:26;9.80;99.90
46319;DHT22;32042;50.916;2.926;2022-11-25T09:57:24;10.00;99.90
46319;DHT22;32042;50.916;2.926;2022-11-25T10:00:20;10.10;99.90
46319;DHT22;32042;50.916;2.926;2022-11-25T10:03:29;10.20;99.90
46319;DHT22;32042;50.916;2.926;2022-11-25T10:08:45;10.30;99.90
46319;DHT22;32042;50.916;2.926;2022-11-25T10:11:48;10.30;99.90
46319;DHT22;32042;50.916;2.926;2022-11-25T10:24:48;10.20;99.90
46319;DHT22;32042;50.916;2.926;2022-11-25T10:27:25;10.20;99.90
46319;DHT22;32042;50.916;2.926;2022-11-25T10:30:06;10.30;99.90
46319;DHT22;32042;50.916;2.926;2022-11-25T10:32:43;10.40;99.90
46319;DHT22;32042;50.916;2.926;2022-11-25T10:35:29;10.50;99.90
46319;DHT22;32042;50.916;2.926;2022-11-25T10:37:58;10.50;99.90
46319;DHT22;32042;50.916;2.926;2022-11-25T10:40:25;10.60;99.90
46319;DHT22;32042;50.916;2.926;2022-11-25T10:42:50;10.70;99.90
46319;DHT22;32042;50.916;2.926;2022-11-25T10:45:16;10.70;99.90
46319;DHT22;32042;50.916;2.926;2022-11-25T10:48:03;10.80;99.90
46319;DHT22;32042;50.916;2.926;2022-11-25T10:51:01;10.80;99.90
46319;DHT22;32042;50.916;2.926;2022-11-25T10:53:27;10.90;99.90
46319;DHT22;32042;50.916;2.926;2022-11-25T10:56:08;10.90;99.90
46319;DHT22;32042;50.916;2.926;2022-11-25T10:58:36;11.00;99.90
46319;DHT22;32042;50.916;2.926;2022-11-25T11:03:31;11.00;99.90
46319;DHT22;32042;50.916;2.926;2022-11-25T11:05:57;11.10;99.90
46319;DHT22;32042;50.916;2.926;2022-11-25T11:08:35;11.10;99.90
46319;DHT22;32042;50.916;2.926;2022-11-25T11:11:19;11.10;99.90
46319;DHT22;32042;50.916;2.926;2022-11-25T11:13:46;11.20;99.90
46319;DHT22;32042;50.916;2.926;2022-11-25T11:16:34;11.30;99.90
46319;DHT22;32042;50.916;2.926;2022-11-25T11:19:01;11.30;99.90
46319;DHT22;32042;50.916;2.926;2022-11-25T11:21:35;11.30;99.90
46319;DHT22;32042;50.916;2.926;2022-11-25T11:24:03;11.40;99.90
46319;DHT22;32042;50.916;2.926;2022-11-25T11:27:12;11.40;99.90
46319;DHT22;32042;50.916;2.926;2022-11-25T11:29:39;11.50;99.90
46319;DHT22;32042;50.916;2.926;2022-11-25T11:32:06;11.60;99.90
46319;DHT22;32042;50.916;2.926;2022-11-25T11:37:53;11.70;99.90
46319;DHT22;32042;50.916;2.926;2022-11-25T11:40:35;11.80;99.90
46319;DHT22;32042;50.916;2.926;2022-11-25T11:48:31;11.90;99.90
46319;DHT22;32042;50.916;2.926;2022-11-25T11:51:13;11.90;99.90
46319;DHT22;32042;50.916;2.926;2022-11-25T12:04:21;12.10;99.90
46319;DHT22;32042;50.916;2.926;2022-11-25T12:09:56;12.10;99.90
46319;DHT22;32042;50.916;2.926;2022-11-25T12:12:37;12.10;99.90
46319;DHT22;32042;50.916;2.926;2022-11-25T12:15:50;12.10;99.90
46319;DHT22;32042;50.916;2.926;2022-11-25T12:27:24;12.00;99.90
46319;DHT22;32042;50.916;2.926;2022-11-25T12:30:00;12.10;99.90
46319;DHT22;32042;50.916;2.926;2022-11-25T12:40:47;12.10;99.90
46319;DHT22;32042;50.916;2.926;2022-11-25T12:46:42;12.10;99.90
46319;DHT22;32042;50.916;2.926;2022-11-25T12:49:19;12.20;99.90
46319;DHT22;32042;50.916;2.926;2022-11-25T13:16:13;12.00;99.90
46319;DHT22;32042;50.916;2.926;2022-11-25T13:18:42;11.90;99.90
46319;DHT22;32042;50.916;2.926;2022-11-25T13:21:15;11.80;99.90
46319;DHT22;32042;50.916;2.926;2022-11-25T13:23:49;11.70;99.90
46319;DHT22;32042;50.916;2.926;2022-11-25T13:29:00;11.80;99.90
46319;DHT22;32042;50.916;2.926;2022-11-25T13:31:34;11.80;99.90
46319;DHT22;32042;50.916;2.926;2022-11-25T13:36:49;12.00;99.90
46319;DHT22;32042;50.916;2.926;2022-11-25T13:39:34;12.10;99.90
46319;DHT22;32042;50.916;2.926;2022-11-25T13:42:11;12.10;99.90
46319;DHT22;32042;50.916;2.926;2022-11-25T13:44:56;12.10;99.90
46319;DHT22;32042;50.916;2.926;2022-11-25T13:47:37;12.10;99.90
46319;DHT22;32042;50.916;2.926;2022-11-25T13:52:42;11.90;99.90
46319;DHT22;32042;50.916;2.926;2022-11-25T13:55:23;11.80;99.90
46319;DHT22;32042;50.916;2.926;2022-11-25T14:25:48;12.00;99.90
46319;DHT22;32042;50.916;2.926;2022-11-25T14:30:50;12.00;99.90
46319;DHT22;32042;50.916;2.926;2022-11-25T14:33:25;12.00;99.90
46319;DHT22;32042;50.916;2.926;2022-11-25T14:36:02;12.00;99.90
46319;DHT22;32042;50.916;2.926;2022-11-25T14:38:57;12.00;99.90
46319;DHT22;32042;50.916;2.926;2022-11-25T14:44:04;11.90;99.90
46319;DHT22;32042;50.916;2.926;2022-11-25T14:46:31;11.90;99.90
46319;DHT22;32042;50.916;2.926;2022-11-25T14:48:59;11.80;99.90
46319;DHT22;32042;50.916;2.926;2022-11-25T14:51:32;11.80;99.90
46319;DHT22;32042;50.916;2.926;2022-11-25T14:53:58;11.70;99.90
46319;DHT22;32042;50.916;2.926;2022-11-25T14:56:33;11.70;99.90
46319;DHT22;32042;50.916;2.926;2022-11-25T14:59:00;11.70;99.90
46319;DHT22;32042;50.916;2.926;2022-11-25T15:01:33;11.60;99.90
46319;DHT22;32042;50.916;2.926;2022-11-25T15:06:39;11.50;99.90
46319;DHT22;32042;50.916;2.926;2022-11-25T15:11:57;11.50;99.90
46319;DHT22;32042;50.916;2.926;2022-11-25T15:14:32;11.40;99.90
46319;DHT22;32042;50.916;2.926;2022-11-25T15:16:59;11.40;99.90
46319;DHT22;32042;50.916;2.926;2022-11-25T15:19:33;11.30;99.90
46319;DHT22;32042;50.916;2.926;2022-11-25T15:22:04;11.30;99.90
46319;DHT22;32042;50.916;2.926;2022-11-25T15:24:33;11.20;99.90
46319;DHT22;32042;50.916;2.926;2022-11-25T15:27:16;11.10;99.90
46319;DHT22;32042;50.916;2.926;2022-11-25T15:29:43;11.10;99.90
46319;DHT22;32042;50.916;2.926;2022-11-25T15:32:15;11.00;99.90
46319;DHT22;32042;50.916;2.926;2022-11-25T15:34:43;11.00;99.90
46319;DHT22;32042;50.916;2.926;2022-11-25T15:37:10;10.90;99.90
46319;DHT22;32042;50.916;2.926;2022-11-25T15:39:36;10.90;99.90
46319;DHT22;32042;50.916;2.926;2022-11-25T15:42:21;10.80;99.90
46319;DHT22;32042;50.916;2.926;2022-11-25T15:45:09;10.70;99.90
46319;DHT22;32042;50.916;2.926;2022-11-25T15:47:43;10.70;99.90
46319;DHT22;32042;50.916;2.926;2022-11-25T15:50:16;10.60;99.90
46319;DHT22;32042;50.916;2.926;2022-11-25T15:52:47;10.50;99.90
46319;DHT22;32042;50.916;2.926;2022-11-25T15:55:31;10.40;99.90
46319;DHT22;32042;50.916;2.926;2022-11-25T16:00:33;10.30;99.90
46319;DHT22;32042;50.916;2.926;2022-11-25T16:02:59;10.30;99.90
46319;DHT22;32042;50.916;2.926;2022-11-25T16:05:31;10.20;99.90
46319;DHT22;32042;50.916;2.926;2022-11-25T16:08:15;10.20;99.90
46319;DHT22;32042;50.916;2.926;2022-11-25T16:18:23;9.90;99.90
46319;DHT22;32042;50.916;2.926;2022-11-25T16:21:02;9.90;99.90
46319;DHT22;32042;50.916;2.926;2022-11-25T16:23:31;9.90;99.90
46319;DHT22;32042;50.916;2.926;2022-11-25T16:26:02;9.80;99.90
46319;DHT22;32042;50.916;2.926;2022-11-25T16:28:29;9.70;99.90
46319;DHT22;32042;50.916;2.926;2022-11-25T16:30:55;9.70;99.90
46319;DHT22;32042;50.916;2.926;2022-11-25T16:33:26;9.50;99.90
46319;DHT22;32042;50.916;2.926;2022-11-25T16:35:52;9.50;99.90
46319;DHT22;32042;50.916;2.926;2022-11-25T16:38:18;9.40;99.90
46319;DHT22;32042;50.916;2.926;2022-11-25T16:40:44;9.30;99.90
46319;DHT22;32042;50.916;2.926;2022-11-25T16:43:18;9.30;99.90
46319;DHT22;32042;50.916;2.926;2022-11-25T16:45:48;9.30;99.90
46319;DHT22;32042;50.916;2.926;2022-11-25T16:48:17;9.20;99.90
46319;DHT22;32042;50.916;2.926;2022-11-25T16:50:43;9.10;99.90
46319;DHT22;32042;50.916;2.926;2022-11-25T16:53:09;9.10;99.90
46319;DHT22;32042;50.916;2.926;2022-11-25T16:55:36;9.00;99.90
46319;DHT22;32042;50.916;2.926;2022-11-25T16:58:13;9.00;99.90
46319;DHT22;32042;50.916;2.926;2022-11-25T17:00:42;8.90;99.90
46319;DHT22;32042;50.916;2.926;2022-11-25T17:03:10;8.90;99.90
46319;DHT22;32042;50.916;2.926;2022-11-25T17:05:36;8.80;99.90
46319;DHT22;32042;50.916;2.926;2022-11-25T17:08:02;8.80;99.90
46319;DHT22;32042;50.916;2.926;2022-11-25T17:10:28;8.70;99.90
46319;DHT22;32042;50.916;2.926;2022-11-25T17:12:54;8.60;99.90
46319;DHT22;32042;50.916;2.926;2022-11-25T17:15:32;8.60;99.90
46319;DHT22;32042;50.916;2.926;2022-11-25T17:18:02;8.40;99.90
46319;DHT22;32042;50.916;2.926;2022-11-25T17:20:29;8.40;99.90
46319;DHT22;32042;50.916;2.926;2022-11-25T17:22:54;8.40;99.90
46319;DHT22;32042;50.916;2.926;2022-11-25T17:25:22;8.40;99.90
46319;DHT22;32042;50.916;2.926;2022-11-25T17:27:49;8.30;99.90
46319;DHT22;32042;50.916;2.926;2022-11-25T17:30:24;8.30;99.90
46319;DHT22;32042;50.916;2.926;2022-11-25T17:32:56;8.30;99.90
46319;DHT22;32042;50.916;2.926;2022-11-25T17:35:22;8.30;99.90
46319;DHT22;32042;50.916;2.926;2022-11-25T17:37:48;8.20;99.90
46319;DHT22;32042;50.916;2.926;2022-11-25T17:40:14;8.20;99.90
46319;DHT22;32042;50.916;2.926;2022-11-25T17:42:41;8.10;99.90
46319;DHT22;32042;50.916;2.926;2022-11-25T17:45:17;8.20;99.90
46319;DHT22;32042;50.916;2.926;2022-11-25T17:47:44;8.10;99.90
46319;DHT22;32042;50.916;2.926;2022-11-25T17:50:20;8.10;99.90
46319;DHT22;32042;50.916;2.926;2022-11-25T17:52:46;8.00;99.90
46319;DHT22;32042;50.916;2.926;2022-11-25T17:55:12;8.00;99.90
46319;DHT22;32042;50.916;2.926;2022-11-25T17:57:41;8.00;99.90
46319;DHT22;32042;50.916;2.926;2022-11-25T18:00:11;7.90;99.90
46319;DHT22;32042;50.916;2.926;2022-11-25T18:02:38;7.90;99.90
46319;DHT22;32042;50.916;2.926;2022-11-25T18:05:14;7.90;99.90
46319;DHT22;32042;50.916;2.926;2022-11-25T18:07:41;7.80;99.90
46319;DHT22;32042;50.916;2.926;2022-11-25T18:10:09;7.80;99.90
46319;DHT22;32042;50.916;2.926;2022-11-25T18:12:36;7.70;99.90
46319;DHT22;32042;50.916;2.926;2022-11-25T18:15:03;7.70;99.90
46319;DHT22;32042;50.916;2.926;2022-11-25T18:17:34;7.70;99.90
46319;DHT22;32042;50.916;2.926;2022-11-25T18:20:18;7.70;99.90
46319;DHT22;32042;50.916;2.926;2022-11-25T18:22:44;7.70;99.90
46319;DHT22;32042;50.916;2.926;2022-11-25T18:25:18;7.70;99.90
46319;DHT22;32042;50.916;2.926;2022-11-25T18:27:44;7.60;99.90
46319;DHT22;32042;50.916;2.926;2022-11-25T18:30:25;7.50;99.90
46319;DHT22;32042;50.916;2.926;2022-11-25T18:32:51;7.50;99.90
46319;DHT22;32042;50.916;2.926;2022-11-25T18:35:24;7.50;99.90
46319;DHT22;32042;50.916;2.926;2022-11-25T18:37:50;7.50;99.90
46319;DHT22;32042;50.916;2.926;2022-11-25T18:40:16;7.50;99.90
46319;DHT22;32042;50.916;2.926;2022-11-25T18:42:44;7.50;99.90